Dover Air Force Base
KDOV : now visible

Airfield :











YOU CAN JOIN US ON...

 
LOGIN :

Register | Disclaimer

   EN    FR    IT 

 









Legend :    VFR   Marginal VFR   IFR   Intensive IFR   Very Intensive IFR
Visi :
Ceiling :
>= 8 km
>= 3000ft
5 to 8 km
1000 to 3000 ft
1500m to 5 km
500 to 1000 ft
800 to 1500m
200 to 500 ft
< 800m
< 200 ft
Symbols :   Thunderstorms  Fog  Heavy snow  Heavy precipitations  Wind > 20 kt






- Airport Elevation : 24 ft


KDOV - Dover Air Force Base

CURRENT METAR :
  • 201556Z AUTO 24006KT 10SM OVC016 20/19 A3024 RMK AO2 CIG 012V016 SLP243 T01990185 $

EXPIRED METARs :
  • 201526Z AUTO 25003KT 10SM OVC013 19/19 A3024 RMK AO2 SLP243 $
  • 201456Z AUTO 19004KT 10SM OVC008 19/19 A3024 RMK AO2 SLP243 T01880188 50005 $
  • 201436Z AUTO 14004KT 10SM BKN007 OVC013 19/19 A3024 RMK AO2 CIG 004V007 SLP243 $
  • 201356Z 12004KT 10SM OVC003 18/18 A3023 RMK AO2A VIS 1/4 RWY01 SLP240 T01810181 $

TAF TAF KDOV
Valid from the 20 at 16:00 until the 21 at 22:00 UTC


201600Z 2016/2122 24006KT 9999 OVC016 QNH3019INS
BECMG 2022/2023 14006KT 9999 BKN006 OVC015 QNH3021INS
BECMG 2100/2101 15006KT 4800 BR OVC005 QNH3023INS
TEMPO 2101/2105 1600 BR
BECMG 2104/2105 17006KT 1600 BR OVC005 QNH3023INS
TEMPO 2108/2113 0800 FG
BECMG 2113/2114 17006KT 9999 NSW OVC005 QNH3026INS
BECMG 2114/2115 19006KT 9999 SCT006 OVC015 QNH3021INS TX24/2100Z TN16/2112Z
KZDC FIR / North America



MET'MAP, your aeronautical weather chart ! - Copyright ORBIFLY December 2007 - Disclaimer

ORBIFLY MET'MAP TEAM :

Programming & Development : Alexandra Zaïnal
Concept & original design : Baudouin d'Aumeries
Assistance for programming : Marc-Olivier Méhu
Technical & hardware support : Manuel Goepfert

Contact : metmap@orbifly.com




SOURCES & CREDITS :

   NOAA       Earth
Advisory